createdAt,value
2019-01-09T00:00:09.197Z,68.00
2019-01-09T00:02:37.004Z,56.08
2019-01-09T00:05:05.223Z,59.42
2019-01-09T00:07:35.301Z,51.45
2019-01-09T00:10:03.902Z,48.38
2019-01-09T00:12:32.042Z,59.55
2019-01-09T00:14:59.598Z,52.25
2019-01-09T00:17:27.557Z,59.70
2019-01-09T00:19:55.266Z,44.63
2019-01-09T00:22:23.206Z,49.93
2019-01-09T00:24:52.678Z,53.52
2019-01-09T00:27:20.559Z,63.85
2019-01-09T00:29:48.407Z,80.25
2019-01-09T00:32:15.950Z,108.12
2019-01-09T00:34:44.619Z,107.00
2019-01-09T00:37:14.647Z,132.87
2019-01-09T00:39:42.703Z,138.43
2019-01-09T00:42:10.783Z,141.07
2019-01-09T00:44:38.518Z,156.97
2019-01-09T00:47:06.437Z,147.40
2019-01-09T00:49:34.262Z,143.02
2019-01-09T00:52:02.650Z,121.80
2019-01-09T00:54:30.305Z,136.30
2019-01-09T00:56:57.866Z,133.20
2019-01-09T00:59:25.908Z,137.62
2019-01-09T01:02:12.335Z,133.65
2019-01-09T01:04:54.139Z,133.43
2019-01-09T01:08:04.789Z,131.07
2019-01-09T01:11:20.828Z,103.95
2019-01-09T01:14:35.135Z,72.30
2019-01-09T01:17:32.069Z,83.22
2019-01-09T01:20:50.135Z,89.87
2019-01-09T01:24:21.208Z,82.05
2019-01-09T01:27:19.732Z,82.25
2019-01-09T01:30:17.322Z,71.82
2019-01-09T01:33:23.655Z,72.50
2019-01-09T01:36:25.847Z,57.38
2019-01-09T01:39:13.530Z,61.00
2019-01-09T01:42:23.120Z,49.80
2019-01-09T01:45:06.223Z,64.58
2019-01-09T01:48:35.812Z,58.08
2019-01-09T01:51:58.746Z,44.08
2019-01-09T01:54:43.493Z,51.23
2019-01-09T01:57:57.588Z,51.73
2019-01-09T02:01:16.227Z,42.67
2019-01-09T02:04:10.346Z,39.65
2019-01-09T02:07:10.817Z,41.08
2019-01-09T02:10:17.350Z,41.15
2019-01-09T02:13:20.476Z,39.95
2019-01-09T02:16:32.188Z,37.85
2019-01-09T02:19:33.850Z,44.10
2019-01-09T02:23:01.011Z,42.10
2019-01-09T02:25:45.673Z,43.40
2019-01-09T02:28:53.650Z,41.30
2019-01-09T02:31:43.598Z,41.25
2019-01-09T02:34:12.017Z,43.92
2019-01-09T02:36:41.472Z,42.17
2019-01-09T02:39:09.755Z,42.03
2019-01-09T02:41:38.037Z,43.45
2019-01-09T02:44:06.301Z,40.23
2019-01-09T02:46:34.583Z,42.75
2019-01-09T02:49:05.088Z,46.60
2019-01-09T02:51:32.977Z,48.85
2019-01-09T02:54:00.918Z,43.42
2019-01-09T02:56:28.783Z,39.78
2019-01-09T02:58:56.689Z,39.67
2019-01-09T03:01:24.247Z,37.70
2019-01-09T03:03:51.887Z,36.93
2019-01-09T03:06:23.118Z,41.42
2019-01-09T03:08:49.691Z,46.98
2019-01-09T03:11:17.431Z,42.88
2019-01-09T03:13:45.272Z,37.90
2019-01-09T03:16:12.985Z,45.92
2019-01-09T03:18:40.737Z,36.98
2019-01-09T03:21:08.690Z,42.33
2019-01-09T03:23:36.459Z,44.38
2019-01-09T03:26:04.357Z,38.33
2019-01-09T03:28:32.242Z,40.12
2019-01-09T03:31:00.583Z,40.20
2019-01-09T03:33:28.253Z,39.40
2019-01-09T03:35:55.873Z,42.08
2019-01-09T03:38:24.597Z,39.35
2019-01-09T03:40:52.448Z,38.33
2019-01-09T03:43:20.167Z,38.83
2019-01-09T03:45:48.307Z,40.38
2019-01-09T03:48:15.987Z,36.80
2019-01-09T03:50:44.246Z,37.15
2019-01-09T03:53:12.105Z,38.88
2019-01-09T03:55:40.068Z,36.10
2019-01-09T03:58:08.056Z,36.88
2019-01-09T04:00:35.855Z,38.30
2019-01-09T04:03:03.751Z,33.00
2019-01-09T04:05:31.594Z,33.38
2019-01-09T04:07:59.211Z,43.35
2019-01-09T04:10:27.327Z,41.13
2019-01-09T04:12:54.995Z,32.08
2019-01-09T04:15:23.400Z,34.83
2019-01-09T04:17:51.391Z,32.58
2019-01-09T04:20:19.138Z,36.03
2019-01-09T04:22:46.966Z,36.85
2019-01-09T04:25:18.186Z,30.85
2019-01-09T04:27:47.152Z,31.93
2019-01-09T04:30:15.107Z,33.23
2019-01-09T04:32:44.131Z,31.33
2019-01-09T04:35:12.224Z,30.40
2019-01-09T04:37:39.804Z,30.35
2019-01-09T04:40:07.516Z,35.45
2019-01-09T04:42:36.434Z,34.53
2019-01-09T04:45:06.240Z,30.92
2019-01-09T04:47:34.164Z,35.88
2019-01-09T04:50:02.063Z,34.45
2019-01-09T04:52:30.014Z,29.37
2019-01-09T04:54:57.702Z,32.40
2019-01-09T04:57:25.754Z,28.65
2019-01-09T04:59:53.579Z,38.30
2019-01-09T05:02:21.376Z,31.40
2019-01-09T05:04:49.732Z,24.45
2019-01-09T05:07:17.567Z,29.48
2019-01-09T05:09:45.927Z,35.10
2019-01-09T05:12:13.636Z,30.90
2019-01-09T05:14:41.482Z,28.05
2019-01-09T05:17:09.422Z,36.38
2019-01-09T05:19:37.206Z,28.85
2019-01-09T05:22:06.067Z,30.17
2019-01-09T05:24:34.181Z,35.83
2019-01-09T05:27:02.203Z,32.95
2019-01-09T05:29:30.019Z,25.72
2019-01-09T05:31:57.905Z,27.00
2019-01-09T05:34:25.734Z,35.03
2019-01-09T05:36:57.919Z,36.93
2019-01-09T05:39:39.706Z,41.65
2019-01-09T05:42:01.937Z,38.15
2019-01-09T05:44:29.622Z,41.80
2019-01-09T05:47:01.011Z,34.80
2019-01-09T05:49:29.748Z,37.67
2019-01-09T05:51:57.757Z,33.85
2019-01-09T05:54:25.337Z,39.92
2019-01-09T05:56:52.944Z,40.03
2019-01-09T05:59:20.538Z,37.13
2019-01-09T06:01:48.558Z,37.20
2019-01-09T06:04:16.185Z,38.13
2019-01-09T06:06:43.785Z,38.13
2019-01-09T06:09:11.407Z,34.23
2019-01-09T06:11:39.266Z,35.98
2019-01-09T06:14:07.186Z,32.78
2019-01-09T06:16:35.233Z,31.45
2019-01-09T06:19:03.357Z,35.58
2019-01-09T06:21:31.151Z,37.70
2019-01-09T06:23:59.065Z,35.95
2019-01-09T06:26:27.406Z,38.95
2019-01-09T06:28:55.005Z,33.38
2019-01-09T06:31:23.861Z,32.70
2019-01-09T06:33:51.676Z,35.28
2019-01-09T06:36:19.786Z,34.48
2019-01-09T06:38:47.926Z,29.67
2019-01-09T06:41:18.608Z,32.80
2019-01-09T06:43:46.370Z,30.80
2019-01-09T06:46:14.319Z,28.10
2019-01-09T06:48:42.130Z,31.10
2019-01-09T06:51:10.164Z,44.27
2019-01-09T06:53:39.986Z,34.60
2019-01-09T06:56:07.996Z,35.10
2019-01-09T06:58:35.719Z,28.80
2019-01-09T07:01:03.707Z,35.75
2019-01-09T07:03:32.055Z,33.10
2019-01-09T07:05:59.877Z,25.48
2019-01-09T07:08:28.109Z,22.60
2019-01-09T07:10:55.958Z,28.30
2019-01-09T07:13:23.596Z,34.50
2019-01-09T07:15:51.199Z,29.80
2019-01-09T07:18:19.021Z,30.88
2019-01-09T07:20:46.974Z,35.48
2019-01-09T07:23:14.731Z,32.05
2019-01-09T07:25:42.376Z,30.88
2019-01-09T07:28:10.104Z,32.80
2019-01-09T07:30:37.923Z,26.23
2019-01-09T07:33:05.773Z,29.30
2019-01-09T07:35:33.479Z,59.23
2019-01-09T07:38:02.361Z,54.65
2019-01-09T07:40:30.276Z,92.72
2019-01-09T07:42:58.215Z,115.25
2019-01-09T07:45:28.840Z,112.32
2019-01-09T07:47:56.637Z,111.28
2019-01-09T07:50:24.282Z,116.53
2019-01-09T07:52:51.955Z,123.00
2019-01-09T07:55:19.879Z,110.65
2019-01-09T07:57:47.490Z,105.40
2019-01-09T08:00:15.678Z,96.35
2019-01-09T08:02:43.523Z,96.60
2019-01-09T08:05:11.337Z,96.30
2019-01-09T08:07:39.680Z,89.15
2019-01-09T08:10:08.870Z,88.33
2019-01-09T08:12:36.572Z,86.35
2019-01-09T08:15:05.085Z,71.30
2019-01-09T08:17:32.775Z,79.53
2019-01-09T08:20:01.973Z,71.35
2019-01-09T08:22:29.757Z,73.65
2019-01-09T08:25:01.844Z,70.00
2019-01-09T08:27:29.552Z,72.70
2019-01-09T08:29:57.430Z,64.07
2019-01-09T08:32:25.349Z,71.82
2019-01-09T08:34:53.497Z,69.00
2019-01-09T08:37:21.530Z,66.20
2019-01-09T08:39:49.922Z,56.02
2019-01-09T08:42:18.808Z,55.23
2019-01-09T08:44:46.626Z,61.60
2019-01-09T08:47:14.324Z,57.58
2019-01-09T08:49:43.999Z,50.63
2019-01-09T08:52:11.970Z,56.15
2019-01-09T08:54:39.696Z,65.10
2019-01-09T08:57:07.324Z,54.53
2019-01-09T08:59:34.940Z,50.65
2019-01-09T09:02:02.520Z,58.50
2019-01-09T09:04:30.342Z,54.40
2019-01-09T09:06:57.982Z,51.18
2019-01-09T09:09:26.602Z,54.35
2019-01-09T09:11:54.406Z,57.33
2019-01-09T09:14:22.289Z,66.42
2019-01-09T09:16:50.206Z,54.85
2019-01-09T09:19:18.121Z,57.88
2019-01-09T09:21:45.869Z,62.73
2019-01-09T09:24:13.696Z,61.02
2019-01-09T09:26:41.658Z,64.85
2019-01-09T09:29:09.467Z,63.70
2019-01-09T09:31:37.011Z,64.60
2019-01-09T09:34:04.759Z,73.85
2019-01-09T09:36:32.634Z,65.80
2019-01-09T09:39:00.569Z,66.95
2019-01-09T09:41:28.195Z,75.45
2019-01-09T09:43:55.821Z,79.17
2019-01-09T09:46:23.730Z,65.55
2019-01-09T09:48:51.555Z,73.07
2019-01-09T09:51:19.538Z,66.77
2019-01-09T09:53:48.196Z,66.77
2019-01-09T09:56:16.034Z,77.75
2019-01-09T09:58:43.957Z,67.58
2019-01-09T10:01:11.731Z,67.62
2019-01-09T10:03:39.449Z,79.75
2019-01-09T10:06:07.548Z,74.27
2019-01-09T10:08:35.354Z,72.15
2019-01-09T10:11:03.768Z,68.80
2019-01-09T10:13:31.405Z,75.70
2019-01-09T10:16:00.141Z,65.90
2019-01-09T10:18:28.054Z,65.10
2019-01-09T10:20:55.945Z,65.65
2019-01-09T10:23:24.555Z,62.20
2019-01-09T10:25:52.495Z,64.17
2019-01-09T10:28:20.323Z,61.85
2019-01-09T10:30:48.178Z,71.40
2019-01-09T10:33:16.108Z,65.00
2019-01-09T10:35:43.774Z,67.08
2019-01-09T10:38:11.411Z,71.42
2019-01-09T10:40:39.143Z,63.70
2019-01-09T10:43:07.182Z,65.32
2019-01-09T10:45:35.104Z,69.20
2019-01-09T10:48:02.925Z,67.65
2019-01-09T10:50:31.585Z,76.40
2019-01-09T10:52:59.404Z,64.17
2019-01-09T10:55:27.319Z,61.48
2019-01-09T10:57:54.999Z,68.62
2019-01-09T11:00:24.679Z,59.98
2019-01-09T11:02:52.914Z,60.03
2019-01-09T11:05:20.874Z,55.30
2019-01-09T11:07:52.623Z,60.88
2019-01-09T11:10:20.510Z,72.17
2019-01-09T11:12:48.323Z,67.30
2019-01-09T11:15:16.381Z,55.55
2019-01-09T11:17:44.403Z,67.87
2019-01-09T11:20:14.766Z,54.55
2019-01-09T11:22:45.384Z,56.68
2019-01-09T11:25:16.335Z,52.90
2019-01-09T11:27:44.415Z,53.40
2019-01-09T11:30:13.779Z,53.35
2019-01-09T11:32:41.621Z,50.60
2019-01-09T11:35:10.632Z,57.15
2019-01-09T11:37:38.658Z,56.42
2019-01-09T11:40:07.863Z,60.17
2019-01-09T11:42:35.793Z,54.05
2019-01-09T11:45:08.955Z,51.23
2019-01-09T11:47:36.815Z,52.93
2019-01-09T11:50:05.317Z,51.20
2019-01-09T11:52:32.963Z,46.77
2019-01-09T11:55:00.648Z,53.73
2019-01-09T11:57:29.374Z,52.95
2019-01-09T12:00:00.930Z,58.35
2019-01-09T12:02:28.713Z,57.23
2019-01-09T12:04:56.605Z,59.58
2019-01-09T12:07:25.217Z,52.20
2019-01-09T12:09:53.216Z,59.80
2019-01-09T12:12:20.942Z,58.20
2019-01-09T12:14:48.903Z,54.98
2019-01-09T12:17:16.711Z,57.15
2019-01-09T12:19:45.124Z,51.85
2019-01-09T12:22:12.860Z,56.20
2019-01-09T12:24:40.873Z,63.80
2019-01-09T12:27:08.403Z,55.83
2019-01-09T12:29:36.112Z,71.47
2019-01-09T12:32:04.018Z,63.85
2019-01-09T12:34:31.807Z,73.80
2019-01-09T12:36:59.576Z,54.75
2019-01-09T12:39:27.615Z,53.48
2019-01-09T12:41:55.344Z,48.55
2019-01-09T12:44:23.399Z,49.15
2019-01-09T12:46:51.113Z,52.00
2019-01-09T12:49:18.847Z,49.53
2019-01-09T12:51:46.434Z,53.58
2019-01-09T12:54:14.346Z,45.58
2019-01-09T12:56:44.291Z,47.05
2019-01-09T12:59:12.059Z,47.00
2019-01-09T13:01:39.687Z,55.03
2019-01-09T13:04:07.675Z,46.15
2019-01-09T13:06:36.157Z,49.00
2019-01-09T13:09:07.515Z,40.03
2019-01-09T13:11:35.221Z,44.23
2019-01-09T13:14:03.151Z,43.08
2019-01-09T13:16:30.929Z,50.35
2019-01-09T13:18:58.697Z,47.20
2019-01-09T13:21:26.520Z,59.45
2019-01-09T13:23:54.162Z,44.27
2019-01-09T13:26:21.823Z,44.38
2019-01-09T13:28:53.531Z,48.65
2019-01-09T13:31:21.378Z,54.80
2019-01-09T13:33:49.305Z,48.85
2019-01-09T13:36:19.664Z,41.37
2019-01-09T13:38:48.071Z,53.10
2019-01-09T13:41:16.067Z,46.58
2019-01-09T13:43:43.961Z,52.48
2019-01-09T13:46:12.441Z,49.30
2019-01-09T13:48:39.998Z,49.18
2019-01-09T13:51:09.520Z,43.73
2019-01-09T13:53:37.471Z,53.23
2019-01-09T13:56:05.476Z,50.73
2019-01-09T13:58:33.203Z,48.73
2019-01-09T14:01:01.114Z,52.73
2019-01-09T14:03:28.940Z,48.50
2019-01-09T14:05:56.833Z,49.80
2019-01-09T14:08:25.034Z,53.05
2019-01-09T14:10:52.643Z,44.70
2019-01-09T14:13:20.316Z,43.15
2019-01-09T14:15:48.255Z,47.65
2019-01-09T14:18:16.077Z,41.70
2019-01-09T14:20:44.029Z,42.30
2019-01-09T14:23:11.793Z,44.03
2019-01-09T14:25:39.856Z,37.88
2019-01-09T14:28:07.739Z,35.83
2019-01-09T14:30:35.315Z,28.40
2019-01-09T14:33:03.235Z,35.20
2019-01-09T14:35:31.204Z,33.90
2019-01-09T14:37:59.018Z,33.30
2019-01-09T14:40:26.990Z,25.65
2019-01-09T14:42:54.799Z,27.13
2019-01-09T14:45:22.794Z,27.25
2019-01-09T14:47:50.599Z,29.00
2019-01-09T14:50:20.712Z,27.73
2019-01-09T14:52:48.737Z,26.07
2019-01-09T14:55:16.930Z,26.12
2019-01-09T14:57:45.092Z,25.40
2019-01-09T15:00:18.733Z,25.30
2019-01-09T15:02:47.523Z,21.23
2019-01-09T15:05:15.639Z,21.93
2019-01-09T15:07:44.560Z,72.90
2019-01-09T15:10:15.106Z,121.92
2019-01-09T15:12:43.283Z,41.33
2019-01-09T15:15:12.847Z,27.65
2019-01-09T15:17:40.832Z,23.45
2019-01-09T15:20:11.707Z,28.20
2019-01-09T15:22:39.684Z,25.52
2019-01-09T15:25:09.067Z,34.78
2019-01-09T15:27:36.778Z,24.67
2019-01-09T15:30:07.850Z,28.05
2019-01-09T15:32:36.702Z,22.67
2019-01-09T15:35:05.836Z,25.17
2019-01-09T15:37:33.715Z,30.08
2019-01-09T15:40:05.976Z,27.82
2019-01-09T15:42:31.542Z,24.35
2019-01-09T15:44:59.306Z,24.55
2019-01-09T15:47:27.113Z,26.80
2019-01-09T15:49:55.140Z,25.05
2019-01-09T15:52:22.862Z,24.10
2019-01-09T15:54:50.820Z,19.80
2019-01-09T15:57:18.449Z,21.68
2019-01-09T15:59:46.088Z,22.93
2019-01-09T16:02:13.713Z,26.20
2019-01-09T16:04:41.323Z,24.95
2019-01-09T16:07:09.407Z,25.60
2019-01-09T16:09:37.134Z,30.75
2019-01-09T16:12:05.081Z,22.67
2019-01-09T16:14:32.881Z,23.42
2019-01-09T16:17:00.759Z,27.00
2019-01-09T16:19:28.394Z,31.90
2019-01-09T16:22:00.151Z,29.35
2019-01-09T16:24:27.999Z,25.88
2019-01-09T16:26:55.957Z,35.17
2019-01-09T16:29:23.794Z,30.27
2019-01-09T16:31:51.701Z,27.17
2019-01-09T16:34:19.486Z,27.50
2019-01-09T16:36:47.811Z,28.47
2019-01-09T16:39:17.461Z,28.10
2019-01-09T16:41:45.180Z,38.30
2019-01-09T16:44:13.897Z,32.93
2019-01-09T16:46:41.631Z,36.58
2019-01-09T16:49:09.606Z,35.95
2019-01-09T16:51:37.377Z,36.15
2019-01-09T16:54:05.361Z,32.38
2019-01-09T16:56:33.128Z,31.80
2019-01-09T16:59:01.015Z,28.25
2019-01-09T17:01:28.993Z,31.93
2019-01-09T17:03:56.830Z,26.65
2019-01-09T17:06:24.650Z,28.20
2019-01-09T17:08:52.543Z,29.67
2019-01-09T17:11:20.293Z,28.00
2019-01-09T17:13:48.273Z,31.33
2019-01-09T17:16:15.799Z,35.63
2019-01-09T17:18:43.659Z,45.03
2019-01-09T17:21:11.668Z,35.35
2019-01-09T17:23:39.864Z,33.28
2019-01-09T17:26:07.628Z,29.60
2019-01-09T17:28:35.523Z,35.43
2019-01-09T17:31:03.876Z,29.12
2019-01-09T17:33:31.582Z,24.72
2019-01-09T17:35:59.480Z,35.13
2019-01-09T17:38:27.870Z,34.45
2019-01-09T17:40:55.542Z,31.10
2019-01-09T17:43:24.743Z,31.42
2019-01-09T17:45:52.943Z,34.27
2019-01-09T17:48:20.476Z,39.70
2019-01-09T17:50:48.369Z,38.23
2019-01-09T17:53:16.253Z,34.90
2019-01-09T17:55:43.942Z,34.95
2019-01-09T17:58:11.952Z,39.45
2019-01-09T18:00:41.068Z,38.23
2019-01-09T18:03:08.683Z,37.53
2019-01-09T18:05:36.846Z,41.10
2019-01-09T18:08:10.378Z,40.23
2019-01-09T18:10:35.403Z,46.42
2019-01-09T18:13:03.393Z,43.10
2019-01-09T18:15:32.358Z,43.10
2019-01-09T18:18:00.127Z,43.17
2019-01-09T18:20:28.094Z,41.28
2019-01-09T18:22:55.946Z,34.43
2019-01-09T18:25:25.326Z,34.75
2019-01-09T18:27:53.720Z,34.60
2019-01-09T18:30:39.686Z,33.13
2019-01-09T18:33:39.701Z,34.95
2019-01-09T18:36:25.219Z,42.25
2019-01-09T18:39:21.807Z,34.88
2019-01-09T18:42:29.137Z,36.83
2019-01-09T18:45:32.615Z,41.50
2019-01-09T18:48:54.299Z,34.83
2019-01-09T18:51:57.265Z,38.65
2019-01-09T18:54:25.019Z,34.05
2019-01-09T18:56:53.600Z,32.15
2019-01-09T18:59:24.991Z,33.55
2019-01-09T19:01:53.019Z,24.32
2019-01-09T19:04:21.154Z,27.40
2019-01-09T19:06:48.992Z,30.85
2019-01-09T19:09:17.086Z,27.48
2019-01-09T19:11:50.480Z,29.40
2019-01-09T19:14:16.556Z,28.07
2019-01-09T19:16:44.575Z,30.80
2019-01-09T19:19:12.166Z,34.40
2019-01-09T19:21:40.151Z,29.12
2019-01-09T19:24:09.135Z,31.40
2019-01-09T19:26:37.209Z,33.83
2019-01-09T19:29:06.168Z,39.80
2019-01-09T19:31:34.219Z,39.75
2019-01-09T19:34:09.381Z,28.38
2019-01-09T19:36:37.443Z,35.38
2019-01-09T19:39:07.874Z,27.62
2019-01-09T19:41:35.790Z,30.75
2019-01-09T19:44:04.574Z,30.10
2019-01-09T19:46:32.262Z,29.50
2019-01-09T19:49:01.886Z,35.17
2019-01-09T19:51:30.351Z,37.65
2019-01-09T19:53:58.301Z,39.60
2019-01-09T19:56:27.303Z,37.48
2019-01-09T19:58:55.284Z,35.50
2019-01-09T20:01:23.246Z,37.10
2019-01-09T20:03:51.108Z,35.95
2019-01-09T20:06:19.014Z,46.50
2019-01-09T20:08:47.096Z,41.88
2019-01-09T20:11:16.035Z,44.93
2019-01-09T20:13:44.952Z,50.33
2019-01-09T20:16:13.625Z,45.50
2019-01-09T20:18:41.502Z,49.93
2019-01-09T20:21:10.539Z,48.05
2019-01-09T20:23:38.471Z,53.90
2019-01-09T20:26:06.603Z,53.15
2019-01-09T20:28:35.072Z,48.23
2019-01-09T20:31:03.066Z,50.80
2019-01-09T20:33:31.937Z,55.65
2019-01-09T20:35:59.861Z,50.88
2019-01-09T20:38:28.271Z,46.00
2019-01-09T20:41:00.012Z,43.83
2019-01-09T20:43:29.342Z,48.25
2019-01-09T20:45:57.818Z,41.98
2019-01-09T20:48:31.480Z,42.78
2019-01-09T20:50:59.441Z,45.25
2019-01-09T20:53:27.159Z,43.98
2019-01-09T20:55:55.097Z,41.80
2019-01-09T20:58:22.965Z,41.42
2019-01-09T21:00:51.324Z,41.50
2019-01-09T21:03:21.086Z,43.78
2019-01-09T21:05:50.849Z,38.30
2019-01-09T21:08:18.561Z,44.93
2019-01-09T21:10:47.806Z,42.95
2019-01-09T21:13:16.092Z,43.00
2019-01-09T21:15:43.716Z,37.90
2019-01-09T21:18:12.284Z,41.40
2019-01-09T21:20:40.262Z,35.55
2019-01-09T21:23:08.181Z,36.80
2019-01-09T21:25:36.011Z,40.15
2019-01-09T21:28:05.557Z,40.60
2019-01-09T21:30:34.114Z,46.35
2019-01-09T21:33:03.396Z,44.93
2019-01-09T21:35:31.160Z,44.83
2019-01-09T21:37:59.899Z,42.55
2019-01-09T21:40:28.955Z,47.48
2019-01-09T21:42:56.985Z,46.18
2019-01-09T21:45:24.742Z,57.00
2019-01-09T21:47:52.974Z,59.15
2019-01-09T21:50:22.245Z,54.33
2019-01-09T21:52:49.986Z,57.48
2019-01-09T21:55:18.741Z,65.22
2019-01-09T21:57:48.935Z,61.13
2019-01-09T22:00:19.494Z,55.95
2019-01-09T22:02:47.693Z,59.95
2019-01-09T22:05:15.769Z,58.38
2019-01-09T22:07:44.122Z,63.65
2019-01-09T22:10:21.703Z,60.10
2019-01-09T22:12:58.121Z,55.23
2019-01-09T22:15:26.708Z,54.90
2019-01-09T22:17:54.922Z,55.65
2019-01-09T22:20:22.895Z,52.00
2019-01-09T22:22:52.631Z,50.52
2019-01-09T22:25:20.654Z,46.68
2019-01-09T22:27:49.153Z,50.88
2019-01-09T22:30:19.805Z,51.53
2019-01-09T22:32:48.967Z,51.15
2019-01-09T22:35:16.937Z,53.17
2019-01-09T22:37:45.969Z,51.60
2019-01-09T22:40:15.862Z,53.10
2019-01-09T22:42:43.894Z,45.28
2019-01-09T22:45:12.811Z,49.20
2019-01-09T22:47:40.819Z,46.37
2019-01-09T22:50:11.863Z,54.85
2019-01-09T22:52:39.768Z,41.92
2019-01-09T22:55:08.546Z,49.63
2019-01-09T22:57:36.271Z,47.75
2019-01-09T23:00:45.735Z,44.73
2019-01-09T23:03:39.140Z,45.92
2019-01-09T23:06:25.142Z,45.25
2019-01-09T23:09:37.117Z,50.55
2019-01-09T23:12:08.235Z,47.53
2019-01-09T23:14:36.846Z,52.62
2019-01-09T23:17:04.722Z,43.45
2019-01-09T23:19:32.571Z,46.13
2019-01-09T23:22:00.554Z,47.00
2019-01-09T23:24:30.682Z,46.00
2019-01-09T23:27:01.138Z,35.85
2019-01-09T23:29:29.054Z,43.13
2019-01-09T23:31:56.839Z,38.98
2019-01-09T23:34:26.712Z,46.10
2019-01-09T23:36:54.241Z,42.90
2019-01-09T23:39:22.068Z,46.75
2019-01-09T23:41:49.625Z,40.08
2019-01-09T23:44:18.718Z,51.35
2019-01-09T23:46:46.503Z,45.43
2019-01-09T23:49:14.301Z,45.50
2019-01-09T23:51:50.063Z,48.30
2019-01-09T23:54:17.811Z,52.40
2019-01-09T23:56:47.432Z,55.12
2019-01-09T23:59:15.228Z,49.10
